Canaveral Natl Seashore, Florida
Current Conditions -  °F | °C
As of 6:58 PM on Monday 20 Oct 2014 (Local Time) from KTTS Reporting Station
Clear Clear  
Wind Chill: 73°   Ceiling: Unl
Heat Index: 73°   Visibility: 10mi
Dew Point: 67°   Wind: 2mph
Humidity: 81%   Direction: 90°E
Pressure: 29.96"   Gusts: NA
Location:  28.75°N, 80.75°W
Report Text: KTTS 202258Z AUTO 09002KT 10SM CLR 23/20 A2996 RMK AO2 SLP148 T02300195 VISNO RWY33 CHINO RWY33 $
Loading
Personal Weather Stations






























Interactive Weather Map
Tropical Storm Tracking
New forecast layout! Learn more

10-Day Weather Forecast

Advertisements
Track Severe Weather on mobile